Time;durP1;ratioP1;P1;durP2;ratioP2;P2;SDS_P1;SDS_P2;PMS_P1;PMS_P2;Temp;Humidity;BMP_temperature;BMP_pressure;BME280_temperature;BME280_humidity;BME280_pressure;Samples;Min_cycle;Max_cycle;Signal;HPM_P1;HPM_P2
2022/10/03 00:00:25;;;;;;;16.25;2.78;;;9.90;99.90;;;;;;4949841;28;20043;-77
2022/10/03 00:03:20;;;;;;;20.05;3.33;;;9.80;99.90;;;;;;4951680;28;20180;-77
2022/10/03 00:05:56;;;;;;;15.23;3.03;;;9.90;99.90;;;;;;4953455;28;20396;-77
2022/10/03 00:08:49;;;;;;;14.27;2.92;;;9.80;99.90;;;;;;4956555;28;20046;-78
2022/10/03 00:11:30;;;;;;;14.40;2.60;;;9.80;99.90;;;;;;4942979;28;20077;-77
2022/10/03 00:14:12;;;;;;;13.88;2.78;;;9.80;99.90;;;;;;4962837;28;20130;-77
2022/10/03 00:17:05;;;;;;;22.63;3.20;;;9.80;99.90;;;;;;4956735;28;20089;-78
2022/10/03 00:20:01;;;;;;;15.15;2.88;;;9.80;99.90;;;;;;4957173;28;20046;-77
2022/10/03 00:22:47;;;;;;;14.88;2.78;;;9.70;99.90;;;;;;4955740;28;20042;-77
2022/10/03 00:25:41;;;;;;;17.73;2.70;;;9.80;99.90;;;;;;4951630;28;20043;-77
2022/10/03 00:28:46;;;;;;;13.40;2.35;;;9.70;99.90;;;;;;4925862;28;20054;-77
2022/10/03 00:31:35;;;;;;;12.25;2.03;;;9.70;99.90;;;;;;4948551;28;20045;-77
2022/10/03 00:34:12;;;;;;;18.38;3.05;;;9.70;99.90;;;;;;4953729;28;20228;-77
2022/10/03 00:37:13;;;;;;;16.42;3.05;;;9.70;99.90;;;;;;4954614;28;20042;-77
2022/10/03 00:39:49;;;;;;;20.15;3.08;;;9.70;99.90;;;;;;4954282;28;20474;-77
2022/10/03 00:42:32;;;;;;;19.08;3.15;;;9.70;99.90;;;;;;4957923;28;20126;-77
2022/10/03 00:45:15;;;;;;;13.35;2.70;;;9.70;99.90;;;;;;4958188;28;20058;-77
2022/10/03 00:48:05;;;;;;;17.85;2.40;;;9.70;99.90;;;;;;4957382;28;20054;-77
2022/10/03 00:50:45;;;;;;;13.15;2.70;;;9.70;99.90;;;;;;4958138;28;20050;-77
2022/10/03 00:53:43;;;;;;;17.65;2.90;;;9.70;99.90;;;;;;4953726;28;20065;-77
2022/10/03 00:56:12;;;;;;;13.90;2.70;;;9.70;99.90;;;;;;4956163;28;20049;-77
2022/10/03 00:58:52;;;;;;;14.68;2.63;;;9.60;99.90;;;;;;4955553;28;20086;-76
2022/10/03 01:01:26;;;;;;;17.88;2.70;;;9.60;99.90;;;;;;4959013;28;20054;-76
2022/10/03 01:04:06;;;;;;;11.00;2.20;;;9.60;99.90;;;;;;4958682;28;20046;-76
2022/10/03 01:06:47;;;;;;;12.57;2.83;;;9.60;99.90;;;;;;4957138;28;20597;-76
2022/10/03 01:09:40;;;;;;;18.98;2.85;;;9.50;99.90;;;;;;4955930;28;20086;-76
2022/10/03 01:12:08;;;;;;;12.52;2.42;;;9.50;99.90;;;;;;4953133;28;20097;-76
2022/10/03 01:14:58;;;;;;;11.27;2.42;;;9.50;99.90;;;;;;4953308;28;20042;-76
2022/10/03 01:18:08;;;;;;;11.95;2.53;;;9.50;99.90;;;;;;4952701;28;20126;-76
2022/10/03 01:20:42;;;;;;;17.63;2.88;;;9.40;99.90;;;;;;4900204;29;20048;-76
2022/10/03 01:23:30;;;;;;;12.73;2.05;;;9.40;99.90;;;;;;4945430;28;20039;-76
2022/10/03 01:26:30;;;;;;;13.20;2.10;;;9.50;99.90;;;;;;4957549;28;20134;-76
2022/10/03 01:32:27;;;;;;;14.25;2.25;;;9.40;99.90;;;;;;4950002;28;20102;-76
2022/10/03 01:35:27;;;;;;;10.00;1.90;;;9.40;99.90;;;;;;4957907;28;20042;-76
2022/10/03 01:38:19;;;;;;;17.10;2.15;;;9.30;99.90;;;;;;4956800;28;20047;-76
2022/10/03 01:40:50;;;;;;;12.07;2.30;;;9.30;99.90;;;;;;4954127;28;20451;-76
2022/10/03 01:43:31;;;;;;;12.02;2.47;;;9.30;99.90;;;;;;4953903;28;20051;-76
2022/10/03 01:46:18;;;;;;;11.57;2.22;;;9.30;99.90;;;;;;4940196;28;20528;-76
2022/10/03 01:48:51;;;;;;;10.38;2.20;;;9.30;99.90;;;;;;4954873;28;20054;-77
2022/10/03 01:51:58;;;;;;;12.23;2.20;;;9.30;99.90;;;;;;4946723;28;20046;-77
2022/10/03 01:54:34;;;;;;;9.20;1.92;;;9.30;99.90;;;;;;4947690;28;20396;-77
2022/10/03 01:57:17;;;;;;;9.23;1.95;;;9.30;99.90;;;;;;4947774;28;20062;-77
2022/10/03 01:59:50;;;;;;;;;;;9.30;99.90;;;;;;4961702;28;20061;-78
2022/10/03 02:02:30;;;;;;;11.13;1.60;;;9.20;99.90;;;;;;4951336;28;19973;-77
2022/10/03 02:05:13;;;;;;;13.15;2.60;;;9.20;99.90;;;;;;4954901;28;20079;-77
2022/10/03 02:08:33;;;;;;;10.07;2.05;;;9.20;99.90;;;;;;4953405;28;20133;-76
2022/10/03 02:11:08;;;;;;;10.20;2.20;;;9.20;99.90;;;;;;4928435;29;20483;-77
2022/10/03 02:13:36;;;;;;;9.45;2.13;;;9.20;99.90;;;;;;4931900;28;20049;-76
2022/10/03 02:16:41;;;;;;;11.90;2.22;;;9.20;99.90;;;;;;4950225;28;20042;-76
2022/10/03 02:19:39;;;;;;;9.63;2.08;;;9.20;99.90;;;;;;4946783;28;20066;-77
2022/10/03 02:22:30;;;;;;;16.45;2.60;;;9.20;99.90;;;;;;4951292;28;20170;-77
2022/10/03 02:25:30;;;;;;;11.57;2.42;;;9.20;99.90;;;;;;4951402;28;20367;-77
2022/10/03 02:28:14;;;;;;;14.52;2.17;;;9.20;99.90;;;;;;4948802;28;20045;-77
2022/10/03 02:31:01;;;;;;;14.93;2.53;;;9.20;99.90;;;;;;4951129;28;20043;-76
2022/10/03 02:33:51;;;;;;;12.60;2.10;;;9.20;99.90;;;;;;4958154;28;20049;-79
2022/10/03 02:36:39;;;;;;;16.42;2.88;;;9.20;99.90;;;;;;4973136;28;20526;-79
2022/10/03 02:39:20;;;;;;;18.00;2.65;;;9.20;99.90;;;;;;4953043;28;20166;-78
2022/10/03 02:42:24;;;;;;;11.75;2.00;;;9.20;99.90;;;;;;4930881;28;20047;-78
2022/10/03 02:45:23;;;;;;;17.33;1.92;;;9.20;99.90;;;;;;4940727;28;20043;-79
2022/10/03 02:48:12;;;;;;;8.07;1.73;;;9.10;99.90;;;;;;4954115;28;20043;-77
2022/10/03 02:51:13;;;;;;;8.38;1.48;;;9.10;99.90;;;;;;4937532;28;20073;-77
2022/10/03 02:54:01;;;;;;;9.85;2.00;;;9.10;99.90;;;;;;4950763;28;20051;-77
2022/10/03 02:56:46;;;;;;;13.80;2.05;;;9.10;99.90;;;;;;4934045;28;20078;-76
2022/10/03 02:59:21;;;;;;;9.63;1.75;;;9.10;99.90;;;;;;4949613;28;20046;-76
2022/10/03 03:02:12;;;;;;;31.13;2.30;;;9.10;99.90;;;;;;4935489;28;20047;-76
2022/10/03 03:05:02;;;;;;;15.57;1.70;;;9.00;99.90;;;;;;4954313;28;20090;-76
2022/10/03 03:08:10;;;;;;;18.92;1.75;;;9.00;99.90;;;;;;4954685;28;20445;-76
2022/10/03 03:10:45;;;;;;;12.27;2.28;;;9.00;99.90;;;;;;4939035;28;20069;-76
2022/10/03 03:14:05;;;;;;;16.00;2.30;;;9.00;99.90;;;;;;4955238;28;20744;-76
2022/10/03 03:16:32;;;;;;;12.02;2.20;;;9.00;99.90;;;;;;4953052;28;20054;-76
2022/10/03 03:19:26;;;;;;;21.85;2.70;;;9.00;99.90;;;;;;4954828;28;20051;-76
2022/10/03 03:22:16;;;;;;;7.32;2.05;;;9.00;99.90;;;;;;4938047;28;20049;-76
2022/10/03 03:25:13;;;;;;;14.57;2.10;;;9.00;99.90;;;;;;4951679;28;20042;-76
2022/10/03 03:28:00;;;;;;;8.93;1.98;;;9.00;99.90;;;;;;4953159;28;20105;-76
2022/10/03 03:30:54;;;;;;;12.60;2.00;;;9.00;99.90;;;;;;4945884;28;20409;-76
2022/10/03 03:33:44;;;;;;;10.70;2.10;;;9.10;99.90;;;;;;4951257;28;20038;-76
2022/10/03 03:36:14;;;;;;;6.57;2.00;;;9.10;99.90;;;;;;4954310;28;20073;-76
2022/10/03 03:38:45;;;;;;;6.55;1.65;;;9.00;99.90;;;;;;4951925;28;20050;-76
2022/10/03 03:41:29;;;;;;;7.90;2.50;;;9.00;99.90;;;;;;4959648;28;20046;-79
2022/10/03 03:44:24;;;;;;;7.35;1.80;;;9.00;99.90;;;;;;4956904;28;20121;-78
2022/10/03 03:47:08;;;;;;;7.97;2.00;;;9.00;99.90;;;;;;4957905;28;20132;-78
2022/10/03 03:49:58;;;;;;;11.13;2.30;;;9.00;99.90;;;;;;4952384;28;20058;-79
2022/10/03 03:52:34;;;;;;;12.30;2.20;;;9.00;99.90;;;;;;4951174;28;20042;-79
2022/10/03 03:55:15;;;;;;;21.00;2.10;;;9.00;99.90;;;;;;4938318;29;20043;-78
2022/10/03 03:58:06;;;;;;;77.05;3.03;;;9.00;99.90;;;;;;4957366;28;20062;-78
2022/10/03 04:00:50;;;;;;;102.22;3.35;;;9.00;99.90;;;;;;4955548;28;20473;-78
2022/10/03 04:03:21;;;;;;;40.25;2.30;;;9.00;99.90;;;;;;4952738;28;20046;-78
2022/10/03 04:06:11;;;;;;;3.30;1.15;;;9.00;99.90;;;;;;4933811;28;20046;-78
2022/10/03 04:08:59;;;;;;;38.55;2.40;;;8.90;99.90;;;;;;4973772;28;20448;-78
2022/10/03 04:12:06;;;;;;;8.70;1.65;;;8.90;99.90;;;;;;4946751;28;20071;-78
2022/10/03 04:15:01;;;;;;;6.70;1.92;;;8.90;99.90;;;;;;4953502;28;20042;-77
2022/10/03 04:20:50;;;;;;;7.13;1.42;;;8.90;99.90;;;;;;4949983;28;20043;-76
2022/10/03 04:23:24;;;;;;;4.78;1.38;;;8.80;99.90;;;;;;4955894;28;20114;-76
2022/10/03 04:25:59;;;;;;;7.45;1.95;;;8.80;99.90;;;;;;4951460;28;20121;-76
2022/10/03 04:28:54;;;;;;;8.68;1.80;;;8.90;99.90;;;;;;4952145;28;20047;-76
2022/10/03 04:31:42;;;;;;;31.23;2.10;;;8.80;99.90;;;;;;4953934;28;20120;-77
2022/10/03 04:34:32;;;;;;;12.45;1.92;;;8.80;99.90;;;;;;4975314;28;20092;-77
2022/10/03 04:37:23;;;;;;;27.50;2.08;;;8.80;99.90;;;;;;4953740;28;20047;-77
2022/10/03 04:40:16;;;;;;;25.25;2.03;;;8.80;99.90;;;;;;4956156;28;20061;-77
2022/10/03 04:42:54;;;;;;;;;;;8.80;99.90;;;;;;4953648;28;20042;-77
2022/10/03 04:45:33;;;;;;;13.73;2.13;;;8.80;99.90;;;;;;4968723;28;19922;-77
2022/10/03 04:48:27;;;;;;;10.35;2.65;;;8.70;99.90;;;;;;4955769;28;20047;-77
2022/10/03 04:51:07;;;;;;;6.85;2.10;;;8.70;99.90;;;;;;4955422;28;20520;-77
2022/10/03 04:54:02;;;;;;;7.70;2.10;;;8.70;99.90;;;;;;4940559;28;20047;-77
2022/10/03 04:56:44;;;;;;;7.70;1.80;;;8.70;99.90;;;;;;4955738;28;20043;-77
2022/10/03 04:59:25;;;;;;;10.82;2.20;;;8.70;99.90;;;;;;4955661;28;20074;-76
2022/10/03 05:02:13;;;;;;;9.82;2.28;;;8.70;99.90;;;;;;4954648;28;20046;-77
2022/10/03 05:05:07;;;;;;;11.05;2.75;;;8.70;99.90;;;;;;4968469;28;20090;-77
2022/10/03 05:07:41;;;;;;;9.93;2.78;;;8.70;99.90;;;;;;4953436;28;20662;-76
2022/10/03 05:10:37;;;;;;;9.65;2.10;;;8.70;99.90;;;;;;4938264;28;20074;-77
2022/10/03 05:13:20;;;;;;;8.57;1.98;;;8.70;99.90;;;;;;4952575;28;20051;-77
2022/10/03 05:16:03;;;;;;;7.25;2.17;;;8.70;99.90;;;;;;4951950;28;20050;-76
2022/10/03 05:18:48;;;;;;;;;;;8.70;99.90;;;;;;4968188;28;20445;-78
2022/10/03 05:21:31;;;;;;;15.75;2.55;;;8.70;99.90;;;;;;4954087;28;19918;-77
2022/10/03 05:24:19;;;;;;;8.35;2.38;;;8.70;99.90;;;;;;4953705;28;20085;-76
2022/10/03 05:27:24;;;;;;;14.30;2.30;;;8.70;99.90;;;;;;4951513;28;20070;-76
2022/10/03 05:30:23;;;;;;;5.43;2.00;;;8.70;99.90;;;;;;4957434;28;20132;-78
2022/10/03 05:33:16;;;;;;;36.58;2.42;;;8.70;99.90;;;;;;4940883;28;20046;-77
2022/10/03 05:35:50;;;;;;;48.58;2.60;;;8.70;99.90;;;;;;4950822;28;20039;-76
2022/10/03 05:38:15;;;;;;;5.00;1.60;;;8.70;99.90;;;;;;4956696;28;20408;-76
2022/10/03 05:41:18;;;;;;;7.93;1.58;;;8.70;99.90;;;;;;4974142;28;20141;-76
2022/10/03 05:44:02;;;;;;;6.93;1.30;;;8.60;99.90;;;;;;4979027;28;20047;-76
2022/10/03 05:46:50;;;;;;;6.45;1.42;;;8.60;99.90;;;;;;4956896;28;20113;-76
2022/10/03 05:49:38;;;;;;;5.25;1.98;;;8.50;99.90;;;;;;4956433;28;20057;-76
2022/10/03 05:52:33;;;;;;;14.25;2.50;;;8.50;99.90;;;;;;4945764;28;20046;-76
2022/10/03 05:55:26;;;;;;;11.85;2.50;;;8.50;99.90;;;;;;4944496;28;21710;-76
2022/10/03 05:58:14;;;;;;;5.75;2.10;;;8.60;99.90;;;;;;4950134;28;20129;-76
2022/10/03 06:01:01;;;;;;;30.60;1.85;;;8.60;99.90;;;;;;4951525;28;20038;-76
2022/10/03 06:03:32;;;;;;;26.55;1.80;;;8.50;99.90;;;;;;4952762;28;20560;-76
2022/10/03 06:06:23;;;;;;;9.45;1.27;;;8.50;99.90;;;;;;4950388;28;20102;-76
2022/10/03 06:08:55;;;;;;;16.90;1.60;;;8.50;99.90;;;;;;4952546;28;20051;-77
2022/10/03 06:11:50;;;;;;;4.85;1.30;;;8.40;99.90;;;;;;4937609;28;20057;-75
2022/10/03 06:14:34;;;;;;;13.20;2.40;;;8.40;99.90;;;;;;4956140;28;20125;-75
2022/10/03 06:17:32;;;;;;;7.38;2.47;;;8.40;99.90;;;;;;4954588;28;20039;-75
2022/10/03 06:20:28;;;;;;;13.30;2.92;;;8.50;99.90;;;;;;4947230;28;20133;-76
2022/10/03 06:23:30;;;;;;;8.00;2.60;;;8.50;99.90;;;;;;4949841;28;20125;-77
2022/10/03 06:26:38;;;;;;;15.80;3.17;;;8.60;99.90;;;;;;4936142;28;20472;-77
2022/10/03 06:29:53;;;;;;;14.75;2.97;;;8.60;99.90;;;;;;4951445;28;20046;-75
2022/10/03 06:32:40;;;;;;;12.52;3.35;;;8.60;99.90;;;;;;4943922;28;20046;-78
2022/10/03 06:35:40;;;;;;;16.05;3.55;;;8.70;99.90;;;;;;4950256;28;20134;-77
2022/10/03 06:38:17;;;;;;;11.75;3.35;;;8.80;99.90;;;;;;4970364;28;20050;-78
2022/10/03 06:41:03;;;;;;;18.25;3.55;;;8.80;99.90;;;;;;4953383;28;21419;-80
2022/10/03 06:43:52;;;;;;;14.35;3.33;;;8.80;99.90;;;;;;4951194;28;20050;-78
2022/10/03 06:46:55;;;;;;;1640.95;215.68;;;8.80;99.90;;;;;;4949156;28;20526;-79
2022/10/03 06:50:07;;;;;;;16.25;4.57;;;8.90;99.90;;;;;;4946382;28;20066;-78
2022/10/03 06:52:42;;;;;;;1999.90;412.95;;;9.00;99.90;;;;;;4950879;28;20081;-78
2022/10/03 06:55:45;;;;;;;34.10;7.50;;;9.00;99.90;;;;;;4946871;28;20489;-77
2022/10/03 06:58:29;;;;;;;;;;;9.10;99.90;;;;;;4964189;28;20414;-79
2022/10/03 07:01:12;;;;;;;274.48;37.80;;;9.20;99.90;;;;;;4960968;28;19918;-80
2022/10/03 07:03:44;;;;;;;;;;;9.30;99.90;;;;;;4964621;28;20070;-75
2022/10/03 07:06:15;;;;;;;18.02;4.43;;;9.40;99.90;;;;;;4950449;28;19985;-79
2022/10/03 07:08:44;;;;;;;16.52;4.22;;;9.50;99.90;;;;;;4953492;28;20077;-79
2022/10/03 07:11:09;;;;;;;20.45;4.78;;;9.60;99.90;;;;;;4972576;28;20105;-79
2022/10/03 07:14:01;;;;;;;18.88;4.50;;;9.70;99.90;;;;;;4939732;28;20050;-79
2022/10/03 07:17:16;;;;;;;16.83;4.50;;;9.80;99.90;;;;;;4948539;28;20467;-80
2022/10/03 07:19:50;;;;;;;16.45;4.57;;;9.90;99.90;;;;;;4938219;28;20078;-78
2022/10/03 07:22:46;;;;;;;17.23;5.10;;;10.00;99.90;;;;;;4948221;28;20054;-79
2022/10/03 07:26:12;;;;;;;23.88;4.53;;;10.10;99.90;;;;;;4951857;28;20368;-79
2022/10/03 07:29:02;;;;;;;15.38;3.97;;;10.20;99.90;;;;;;4944277;28;20105;-78
2022/10/03 07:31:31;;;;;;;21.38;4.55;;;10.30;99.90;;;;;;4952151;28;20101;-77
2022/10/03 07:34:31;;;;;;;19.58;4.97;;;10.40;99.90;;;;;;4955194;28;20166;-79
2022/10/03 07:39:59;;;;;;;;;;;10.50;99.90;;;;;;4949946;28;20046;-78
2022/10/03 07:42:59;;;;;;;19.85;4.68;;;10.50;99.90;;;;;;4937622;28;19918;-78
2022/10/03 07:45:44;;;;;;;15.38;4.47;;;10.60;99.90;;;;;;4954047;28;20043;-78
2022/10/03 07:48:23;;;;;;;21.83;4.45;;;10.60;99.90;;;;;;4947045;29;20060;-78
2022/10/03 07:50:59;;;;;;;13.85;4.38;;;10.80;99.90;;;;;;4953391;28;20517;-80
2022/10/03 07:54:02;;;;;;;15.60;4.57;;;10.80;99.90;;;;;;4936382;29;20063;-78
2022/10/03 07:56:49;;;;;;;16.65;4.55;;;10.90;99.90;;;;;;4946589;28;20039;-78
2022/10/03 07:59:37;;;;;;;18.60;4.47;;;11.00;99.90;;;;;;4948802;28;20143;-78
2022/10/03 08:02:40;;;;;;;14.90;3.75;;;11.10;99.90;;;;;;4953144;28;20047;-77
2022/10/03 08:05:06;;;;;;;13.38;3.40;;;11.20;99.90;;;;;;4936610;28;20134;-78
2022/10/03 08:08:08;;;;;;;16.27;3.50;;;11.30;99.90;;;;;;4962121;28;20070;-78
2022/10/03 08:10:55;;;;;;;18.37;3.47;;;11.30;99.90;;;;;;4934786;28;20434;-78
2022/10/03 08:13:27;;;;;;;17.77;2.90;;;11.50;99.90;;;;;;4936586;28;20521;-77
2022/10/03 08:16:21;;;;;;;10.40;2.83;;;11.50;99.90;;;;;;4940019;28;20047;-77
2022/10/03 08:19:00;;;;;;;15.75;2.88;;;11.60;99.90;;;;;;4954610;28;20043;-77
2022/10/03 08:21:47;;;;;;;17.08;3.38;;;11.60;99.90;;;;;;4966205;28;20121;-77
2022/10/03 08:24:25;;;;;;;13.82;2.80;;;11.70;99.90;;;;;;4966840;28;20047;-77
2022/10/03 08:27:17;;;;;;;14.30;2.35;;;11.80;99.90;;;;;;4954167;28;20158;-77
2022/10/03 08:29:58;;;;;;;13.57;2.38;;;11.90;99.90;;;;;;4953716;28;20077;-77
2022/10/03 08:33:29;;;;;;;11.20;2.28;;;11.90;99.90;;;;;;4953552;28;20086;-77
2022/10/03 08:36:15;;;;;;;9.10;2.38;;;12.00;99.90;;;;;;4849320;29;20080;-80
2022/10/03 08:38:46;;;;;;;12.70;2.00;;;12.10;99.90;;;;;;4954129;28;20049;-77
2022/10/03 08:41:36;;;;;;;13.77;2.33;;;12.10;99.90;;;;;;4952304;28;20057;-78
2022/10/03 08:44:39;;;;;;;15.98;2.33;;;12.20;99.90;;;;;;4939053;28;20042;-76
2022/10/03 08:47:16;;;;;;;10.48;2.35;;;12.30;99.90;;;;;;4952893;28;20043;-78
2022/10/03 08:50:00;;;;;;;13.27;2.40;;;12.40;99.90;;;;;;4951905;28;20047;-77
2022/10/03 08:52:47;;;;;;;14.60;2.38;;;12.50;99.90;;;;;;4949601;28;20058;-83
2022/10/03 08:55:48;;;;;;;12.38;2.50;;;12.70;99.90;;;;;;4952191;28;20043;-77
2022/10/03 08:58:22;;;;;;;11.55;2.20;;;12.80;99.90;;;;;;4946020;28;20061;-78
2022/10/03 09:01:14;;;;;;;14.50;2.05;;;12.80;99.90;;;;;;4954785;28;20054;-77
2022/10/03 09:04:04;;;;;;;13.10;1.85;;;12.90;99.90;;;;;;4960804;28;20059;-78
2022/10/03 09:06:54;;;;;;;10.75;2.03;;;13.10;99.90;;;;;;4951856;28;20118;-77
2022/10/03 09:09:22;;;;;;;11.27;1.90;;;13.20;99.90;;;;;;4957481;28;20042;-78
2022/10/03 09:11:54;;;;;;;11.68;1.98;;;13.30;99.90;;;;;;4941944;28;20051;-77
2022/10/03 09:14:40;;;;;;;21.15;2.58;;;13.50;99.90;;;;;;4955519;28;20042;-77
2022/10/03 09:17:15;;;;;;;11.55;1.98;;;13.50;99.90;;;;;;4960455;28;20038;-78
2022/10/03 09:20:06;;;;;;;7.53;1.75;;;13.70;99.90;;;;;;4996958;28;20082;-79
2022/10/03 09:23:10;;;;;;;14.57;1.95;;;13.70;99.90;;;;;;4943748;28;20047;-78
2022/10/03 09:26:05;;;;;;;11.30;1.70;;;13.80;99.90;;;;;;4954042;28;20053;-78
2022/10/03 09:28:40;;;;;;;11.68;1.95;;;13.90;99.90;;;;;;4948283;28;20069;-79
2022/10/03 09:31:08;;;;;;;11.00;2.40;;;14.00;99.90;;;;;;4962238;28;20072;-79
2022/10/03 09:33:59;;;;;;;11.80;2.10;;;14.00;99.90;;;;;;4950744;28;20051;-79
2022/10/03 09:37:12;;;;;;;9.10;2.10;;;14.10;99.90;;;;;;4945386;28;20054;-79
2022/10/03 09:39:59;;;;;;;9.82;1.60;;;14.20;99.90;;;;;;4927110;28;20442;-80
2022/10/03 09:42:52;;;;;;;12.00;2.20;;;14.30;99.90;;;;;;4959272;28;20509;-79
2022/10/03 09:45:39;;;;;;;15.63;2.00;;;14.30;99.90;;;;;;4943767;28;20387;-79
2022/10/03 09:48:26;;;;;;;13.30;2.15;;;14.50;99.90;;;;;;4956334;28;20087;-73
2022/10/03 09:51:30;;;;;;;12.55;1.70;;;14.60;99.90;;;;;;4957963;28;20039;-76
2022/10/03 09:54:38;;;;;;;7.13;1.60;;;14.70;99.90;;;;;;4930555;28;20043;-82
2022/10/03 09:57:37;;;;;;;9.90;1.63;;;14.70;99.90;;;;;;4953402;28;20090;-79
2022/10/03 10:00:21;;;;;;;7.53;1.38;;;14.80;99.90;;;;;;4948069;28;20113;-80
2022/10/03 10:03:29;;;;;;;7.80;1.80;;;15.00;99.90;;;;;;4940322;28;20043;-78
2022/10/03 10:06:21;;;;;;;18.52;3.05;;;15.10;99.90;;;;;;4951649;28;20134;-78
2022/10/03 10:09:35;;;;;;;8.00;1.88;;;15.30;99.90;;;;;;4953414;28;20790;-77
2022/10/03 10:12:19;;;;;;;10.52;1.85;;;15.40;99.90;;;;;;4936840;28;20209;-69
2022/10/03 10:15:03;;;;;;;9.05;1.65;;;15.50;99.90;;;;;;4956017;28;20043;-74
2022/10/03 10:18:07;;;;;;;7.82;1.65;;;15.60;99.90;;;;;;4954902;28;20117;-74
2022/10/03 10:20:51;;;;;;;29.33;3.00;;;15.70;99.90;;;;;;4951358;28;20050;-77
2022/10/03 10:23:42;;;;;;;10.85;1.70;;;15.80;99.90;;;;;;4954503;28;20047;-75
2022/10/03 10:26:45;;;;;;;11.23;1.60;;;15.90;99.90;;;;;;4946318;28;20482;-73
2022/10/03 10:29:39;;;;;;;9.43;1.63;;;16.10;99.90;;;;;;4942958;28;20054;-75
2022/10/03 10:33:00;;;;;;;8.27;1.75;;;16.20;99.90;;;;;;4951687;28;20049;-75
2022/10/03 10:36:05;;;;;;;7.75;1.35;;;16.30;99.90;;;;;;4952882;28;20042;-74
2022/10/03 10:39:12;;;;;;;8.10;1.42;;;16.30;99.90;;;;;;4949773;28;20058;-74
2022/10/03 10:41:59;;;;;;;7.97;1.83;;;16.40;99.90;;;;;;4964778;28;20043;-74
2022/10/03 10:45:12;;;;;;;9.80;1.58;;;16.50;99.90;;;;;;4953687;28;20049;-74
2022/10/03 10:47:47;;;;;;;5.90;1.52;;;16.50;99.90;;;;;;4949588;28;20070;-74
2022/10/03 10:50:55;;;;;;;6.57;1.40;;;16.70;99.90;;;;;;4955155;28;20105;-74
2022/10/03 10:53:46;;;;;;;6.43;1.55;;;16.80;99.90;;;;;;4953153;28;20046;-76
2022/10/03 10:56:26;;;;;;;9.27;1.45;;;16.90;99.90;;;;;;4962222;28;20051;-75
2022/10/03 10:59:14;;;;;;;7.40;1.50;;;17.10;99.90;;;;;;4932966;28;20489;-76
2022/10/03 11:02:27;;;;;;;7.38;1.80;;;17.30;99.90;;;;;;4951319;28;20066;-80
2022/10/03 11:05:41;;;;;;;10.00;1.90;;;17.50;99.90;;;;;;4923745;28;20050;-76
2022/10/03 11:08:26;;;;;;;9.32;1.55;;;17.70;99.90;;;;;;4948820;28;20038;-79
2022/10/03 11:11:16;;;;;;;12.02;1.80;;;18.00;99.90;;;;;;4949021;28;20039;-81
2022/10/03 11:13:57;;;;;;;5.18;1.30;;;18.10;99.90;;;;;;4940838;28;20046;-80
2022/10/03 11:17:01;;;;;;;5.78;1.42;;;18.20;99.90;;;;;;4939456;28;20058;-81
2022/10/03 11:20:05;;;;;;;6.55;1.58;;;18.20;99.90;;;;;;4953893;28;20043;-76
2022/10/03 11:23:26;;;;;;;658.65;90.97;;;18.20;99.90;;;;;;4922418;28;20047;-81
2022/10/03 11:26:17;;;;;;;116.55;13.25;;;18.20;99.90;;;;;;4939264;28;20042;-76
2022/10/03 11:29:14;;;;;;;7.40;1.63;;;18.40;99.90;;;;;;4953542;28;20130;-77
2022/10/03 11:32:06;;;;;;;4.03;1.00;;;18.80;99.90;;;;;;4938627;28;20129;-80
2022/10/03 11:35:09;;;;;;;6.68;1.85;;;19.10;99.90;;;;;;4933229;28;20098;-78
2022/10/03 11:37:43;;;;;;;9.07;1.70;;;19.30;99.90;;;;;;4951350;28;20043;-80
2022/10/03 11:40:37;;;;;;;10.80;1.67;;;19.50;99.90;;;;;;4933249;28;20045;-73
2022/10/03 11:43:24;;;;;;;5.28;1.48;;;19.50;99.90;;;;;;4948236;28;20043;-75
2022/10/03 11:46:04;;;;;;;824.53;148.10;;;19.70;99.90;;;;;;4952206;28;20454;-80
2022/10/03 11:48:38;;;;;;;19.15;3.97;;;20.00;99.90;;;;;;4940593;28;20545;-79
2022/10/03 11:51:17;;;;;;;16.42;3.15;;;20.10;99.90;;;;;;4929056;28;20131;-78
2022/10/03 11:54:04;;;;;;;1294.03;156.55;;;20.20;99.90;;;;;;4953384;28;20034;-77
2022/10/03 11:56:37;;;;;;;8.10;1.65;;;20.10;99.90;;;;;;4951056;28;20051;-75
2022/10/03 11:59:27;;;;;;;14.95;2.17;;;20.10;99.90;;;;;;4947491;28;20501;-76
2022/10/03 12:02:19;;;;;;;8.52;1.90;;;20.20;99.90;;;;;;4950680;28;20082;-76
2022/10/03 12:04:53;;;;;;;5.43;1.48;;;20.10;99.90;;;;;;4951902;28;20129;-80
2022/10/03 12:10:51;;;;;;;4.93;1.27;;;20.00;99.90;;;;;;4952591;28;20053;-79
2022/10/03 12:13:28;;;;;;;4.90;1.15;;;19.80;99.90;;;;;;4955225;28;20047;-78
2022/10/03 12:15:57;;;;;;;9.55;1.75;;;19.70;99.90;;;;;;4971179;28;20114;-78
2022/10/03 12:18:43;;;;;;;6.88;1.40;;;19.50;99.90;;;;;;4956959;28;20448;-77
2022/10/03 12:21:13;;;;;;;5.43;1.60;;;19.40;99.90;;;;;;4952322;28;20038;-78
2022/10/03 12:23:51;;;;;;;4.78;1.25;;;19.10;99.90;;;;;;4957221;28;20047;-78
2022/10/03 12:26:28;;;;;;;5.05;1.27;;;19.10;99.90;;;;;;4960908;28;20569;-77
2022/10/03 12:28:56;;;;;;;6.65;1.70;;;19.20;99.90;;;;;;4939382;28;20046;-79
2022/10/03 12:31:28;;;;;;;6.38;1.42;;;19.40;99.90;;;;;;4956782;28;20133;-79
2022/10/03 12:34:18;;;;;;;5.93;1.10;;;19.60;99.90;;;;;;4952962;28;20093;-80
2022/10/03 12:37:28;;;;;;;20.00;1.88;;;19.80;99.90;;;;;;4951627;28;20054;-79
2022/10/03 12:40:21;;;;;;;5.35;1.33;;;19.90;99.90;;;;;;4950979;28;20039;-77
2022/10/03 12:43:15;;;;;;;7.82;1.40;;;20.00;99.90;;;;;;4957277;28;20690;-79
2022/10/03 12:45:49;;;;;;;9.48;1.40;;;20.10;99.90;;;;;;4956030;28;20046;-79
2022/10/03 12:48:35;;;;;;;7.38;1.52;;;20.10;99.90;;;;;;4956345;28;20051;-80
2022/10/03 12:51:13;;;;;;;6.80;1.30;;;20.10;99.90;;;;;;4950642;28;20038;-75
2022/10/03 12:54:04;;;;;;;12.35;1.98;;;20.20;99.90;;;;;;4953147;28;20045;-78
2022/10/03 12:56:46;;;;;;;5.55;1.38;;;20.20;99.90;;;;;;4955136;28;20070;-78
2022/10/03 12:59:14;;;;;;;6.97;1.30;;;20.20;99.90;;;;;;4955821;28;20043;-81
2022/10/03 13:02:19;;;;;;;1999.90;351.17;;;20.10;99.90;;;;;;4950344;28;20416;-80
2022/10/03 13:05:14;;;;;;;11.15;2.20;;;20.10;99.90;;;;;;4950345;28;20049;-76
2022/10/03 13:08:02;;;;;;;19.30;2.08;;;20.10;99.90;;;;;;4954095;28;20050;-79
2022/10/03 13:10:46;;;;;;;1999.90;352.75;;;20.10;99.90;;;;;;4942801;28;20058;-83
2022/10/03 13:13:31;;;;;;;18.20;3.03;;;20.00;99.90;;;;;;4954688;28;20098;-82
2022/10/03 13:16:08;;;;;;;7.00;1.63;;;20.10;99.90;;;;;;4950655;28;20043;-72
2022/10/03 13:18:43;;;;;;;60.55;5.35;;;20.10;99.90;;;;;;4952067;28;20092;-74
2022/10/03 13:21:35;;;;;;;8.02;1.60;;;20.30;99.90;;;;;;4952504;28;20043;-73
2022/10/03 13:24:06;;;;;;;1268.45;157.93;;;20.40;99.90;;;;;;4955703;28;20077;-78
2022/10/03 13:27:09;;;;;;;49.88;7.43;;;20.60;99.90;;;;;;4952742;28;20042;-77
2022/10/03 13:29:45;;;;;;;1999.90;753.97;;;20.80;99.90;;;;;;4954578;28;20043;-77
2022/10/03 13:32:36;;;;;;;46.17;8.43;;;20.80;99.90;;;;;;4955058;28;20066;-79
2022/10/03 13:38:17;;;;;;;587.75;96.22;;;20.70;99.90;;;;;;4954199;28;20082;-79
2022/10/03 13:41:05;;;;;;;165.02;21.20;;;20.50;99.90;;;;;;4934882;28;20061;-79
2022/10/03 13:43:37;;;;;;;1999.90;730.45;;;20.40;99.90;;;;;;4944731;28;21344;-79
2022/10/03 13:46:25;;;;;;;30.73;6.18;;;20.20;99.90;;;;;;4950739;28;20047;-75
2022/10/03 13:49:09;;;;;;;9.68;2.10;;;20.20;99.90;;;;;;4946067;28;20512;-77
2022/10/03 13:52:01;;;;;;;8.32;1.70;;;20.00;99.90;;;;;;4937439;28;20047;-75
2022/10/03 13:54:51;;;;;;;47.13;4.68;;;19.80;99.90;;;;;;4938099;28;20070;-81
2022/10/03 13:57:23;;;;;;;5.05;1.33;;;19.70;99.90;;;;;;4955502;28;20093;-78
2022/10/03 14:00:07;;;;;;;14.93;2.58;;;19.60;99.90;;;;;;4959883;28;20039;-78
2022/10/03 14:02:40;;;;;;;15.70;2.58;;;19.50;99.90;;;;;;4951722;28;20046;-79
2022/10/03 14:05:21;;;;;;;12.15;2.22;;;19.40;99.90;;;;;;4947520;28;20042;-78
2022/10/03 14:07:58;;;;;;;23.55;2.60;;;19.50;99.90;;;;;;4956970;28;20039;-79
2022/10/03 14:11:06;;;;;;;6.05;1.35;;;19.70;99.90;;;;;;4952200;28;20074;-78
2022/10/03 14:13:53;;;;;;;14.40;2.22;;;20.00;99.90;;;;;;4954789;28;20050;-80
2022/10/03 14:16:30;;;;;;;7.93;1.70;;;20.20;99.90;;;;;;4940513;28;20405;-79
2022/10/03 14:19:17;;;;;;;1147.65;144.02;;;20.40;99.90;;;;;;4949778;28;20525;-77
2022/10/03 14:21:56;;;;;;;7.10;1.45;;;20.60;99.90;;;;;;4952281;28;20050;-71
2022/10/03 14:24:52;;;;;;;9.75;2.45;;;20.70;99.90;;;;;;4957860;28;20441;-78
2022/10/03 14:27:42;;;;;;;7.65;1.50;;;20.80;99.90;;;;;;4965731;28;20072;-74
2022/10/03 14:30:18;;;;;;;20.05;2.38;;;21.10;99.90;;;;;;4949475;28;20049;-75
2022/10/03 14:36:02;;;;;;;25.85;2.78;;;21.70;99.90;;;;;;4982815;28;20051;-76
2022/10/03 14:38:57;;;;;;;9.45;1.77;;;21.80;99.00;;;;;;4955671;28;20057;-78
2022/10/03 14:41:31;;;;;;;9.43;1.58;;;21.60;99.00;;;;;;4957379;28;20058;-75
2022/10/03 14:44:12;;;;;;;4.15;1.27;;;21.20;95.90;;;;;;4970148;28;20104;-75
2022/10/03 14:46:59;;;;;;;4.35;1.13;;;20.70;96.50;;;;;;4971252;28;20042;-82
2022/10/03 14:49:30;;;;;;;9.10;1.60;;;20.20;97.40;;;;;;4957466;28;20113;-74